Αρχική σελίδα
METAR-TAF:

METAR-TAF

Αεροδρόμια :

Μαυρίκιος, Μαυρίκιος

γεωγραφικό πλάτος: 20-26S, γεωγραφικό μήκος: 057-40E, υψόμετρο: 55 μ

Παρών καιρός

Η αναφορά έγινε 43 λεπτά πριν, στις 00:00 UTC
Άνεμος 4 kt από Β/BΔ
Θερμοκρασία 24°C
Υγρασία 89%
Πίεση 1015 hPa
Ορατότητα 10 χλμ και άνω
Λίγα νέφη σε ύψος 1800 πόδια

METAR: FIMP 220000Z 33004KT 9999 FEW018 24/22 Q1015

Χρόνος: 04:43 (00:43 UTC)

Πρόγνωση Καιρού

Η αναφορά έγινε 1 ώρα και 13 λεπτά πριν, στις 23:30 UTC
Η πρόγνωση ισχύει από τις 22 στις 00 UTC έως τις 23 στις 06 UTC
Άνεμος 3 kt από
Ορατότητα 10 χλμ και άνω
Λίγα νέφη σε ύψος 1800 πόδια
Καθιστάμενος
από 22 στις 04 UTC έως τις 22 στις 06 UTC
Άνεμος 8 kt από BA
Διάσπαρτα νέφη σε ύψος 1800 πόδια

TAF: FIMP 212330Z 2200/2306 32003KT 9999 FEW018 BECMG 2204/2206 05008KT SCT018

Μετεωρολογικές αναφορές και προγνώσεις για περισσότερα από 4000 αεροδρόμια (δελτία METAR και TAF).

Οι διαθέσιμοι σταθμοί απεικονίζονται στο χάρτη με κίτρινες και κόκκινες κουκκίδες.

Μετακινήστε το ποντίκι πάνω από τις κουκκίδες για να δείτε το όνομα του σταθμού.

Στη συνέχεια, κάντε κλικ για να δείτε τις μετεωρολογικές αναφορές και τις προγνώσεις καιρού.

Για να αλλάξετε το χάρτη: κάντε κλικ στα πράσινα κουμπιά με τον μαύρο σταυρό για να ζουμάρετε, στο πράσινο κουμπί με την παύλα για να αφαιρέσετε το ζουμ ή στα πράσινα βέλη για να αντιπαραβάλλετε χάρτες.


METAR-TAF: